Strona główna
METAR-TAF:

METAR-TAF

Lotnisko :

Port lotniczy Rzym-Fiumicino

Rzym-Fiumicino, Włochy

Szerokość geograficzna: 41-48N, Długość geograficzna: 012-14E, wysokość: 2 m

Aktualna obserwacja pogody

Raport powstał 10 minut temu, godzina 22:50 UTC
Wiatr 3 kt od wschód
Temperatura 4°C
Wilgotność 87%
Ciśnienie 1024 hPa
Widzialność 10 km lub więcej
Brak chmur poniżej 1500 m i brak chmur cumulonimbus

METAR: LIRF 192250Z 09003KT CAVOK 04/02 Q1024 NOSIG

czas: 00:00 (23:00 UTC)

Prognoza

Raport powstał 6 godziny i 0 minut temu, godzina 17:00 UTC
Prognoza ważna od 19 godzina 18 UTC do 20 godzina 24 UTC
Wiatr 6 kt z kierunków zmiennych
Widzialność 10 km lub więcej
Przerywane chmury na wysokości 3000 ft
Stopniowe zmiany
od 20 godzina 12 UTC do 20 godzina 14 UTC
Wiatr 10 kt od zachód
Stopniowe zmiany
od 20 godzina 16 UTC do 20 godzina 18 UTC
Wiatr 5 kt z kierunków zmiennych

TAF: LIRF 191700Z 1918/2024 VRB06KT 9999 BKN030 BECMG 2012/2014 28010KT BECMG 2016/2018 VRB05KT

Obserwacja i prognoza pogody dla ponad 4000 lotnisk (raport METAR i TAF).

Dostępne stacje oznaczono żółtymi i czerwonymi punktami na mapie.

Najedź kursorem aby zobaczyć nazwę stacji.

Kliknij aby zobaczyć obserwacje i prognozy pogody.

Aby zmienić mapę: kliknij na zielony przycisk z czarnym krzyżykiem, aby powiększyć; na zielony przycisk z myślnikiem, aby pomniejszyć; na zielone strzałki, aby przejść do map sąsiednich.


METAR-TAF: